sensor_id;sensor_type;location;lat;lon;timestamp;P1;durP1;ratioP1;P2;durP2;ratioP2
56419;SDS011;42323;52.170;7.538;2022-12-11T00:00:06;39.60;;;12.02;;
56419;SDS011;42323;52.170;7.538;2022-12-11T00:02:33;38.15;;;12.38;;
56419;SDS011;42323;52.170;7.538;2022-12-11T00:05:00;32.78;;;10.93;;
56419;SDS011;42323;52.170;7.538;2022-12-11T00:07:27;32.70;;;12.10;;
56419;SDS011;42323;52.170;7.538;2022-12-11T00:09:54;40.45;;;11.23;;
56419;SDS011;42323;52.170;7.538;2022-12-11T00:12:20;38.78;;;10.35;;
56419;SDS011;42323;52.170;7.538;2022-12-11T00:14:47;36.33;;;10.40;;
56419;SDS011;42323;52.170;7.538;2022-12-11T00:17:14;36.30;;;10.85;;
56419;SDS011;42323;52.170;7.538;2022-12-11T00:19:41;30.02;;;9.18;;
56419;SDS011;42323;52.170;7.538;2022-12-11T00:22:07;34.38;;;10.23;;
56419;SDS011;42323;52.170;7.538;2022-12-11T00:24:34;38.17;;;11.05;;
56419;SDS011;42323;52.170;7.538;2022-12-11T00:27:01;28.25;;;10.90;;
56419;SDS011;42323;52.170;7.538;2022-12-11T00:29:28;28.83;;;10.68;;
56419;SDS011;42323;52.170;7.538;2022-12-11T00:31:54;23.42;;;9.70;;
56419;SDS011;42323;52.170;7.538;2022-12-11T00:34:21;28.25;;;10.20;;
56419;SDS011;42323;52.170;7.538;2022-12-11T00:36:48;30.05;;;11.18;;
56419;SDS011;42323;52.170;7.538;2022-12-11T00:39:15;37.00;;;10.95;;
56419;SDS011;42323;52.170;7.538;2022-12-11T00:41:42;36.78;;;10.43;;
56419;SDS011;42323;52.170;7.538;2022-12-11T00:44:08;26.45;;;8.95;;
56419;SDS011;42323;52.170;7.538;2022-12-11T00:46:35;31.38;;;10.93;;
56419;SDS011;42323;52.170;7.538;2022-12-11T00:49:02;28.83;;;10.73;;
56419;SDS011;42323;52.170;7.538;2022-12-11T00:51:29;28.83;;;11.40;;
56419;SDS011;42323;52.170;7.538;2022-12-11T00:53:56;26.27;;;10.73;;
56419;SDS011;42323;52.170;7.538;2022-12-11T00:56:23;25.42;;;10.32;;
56419;SDS011;42323;52.170;7.538;2022-12-11T00:58:50;22.00;;;9.68;;
56419;SDS011;42323;52.170;7.538;2022-12-11T01:01:19;27.40;;;9.73;;
56419;SDS011;42323;52.170;7.538;2022-12-11T01:03:48;24.77;;;9.65;;
56419;SDS011;42323;52.170;7.538;2022-12-11T01:06:17;18.48;;;8.05;;
56419;SDS011;42323;52.170;7.538;2022-12-11T01:08:46;27.77;;;8.80;;
56419;SDS011;42323;52.170;7.538;2022-12-11T01:11:14;30.45;;;10.45;;
56419;SDS011;42323;52.170;7.538;2022-12-11T01:13:41;24.17;;;8.38;;
56419;SDS011;42323;52.170;7.538;2022-12-11T01:16:09;22.00;;;9.85;;
56419;SDS011;42323;52.170;7.538;2022-12-11T01:18:39;23.63;;;9.52;;
56419;SDS011;42323;52.170;7.538;2022-12-11T01:21:07;31.48;;;11.02;;
56419;SDS011;42323;52.170;7.538;2022-12-11T01:23:35;32.47;;;9.90;;
56419;SDS011;42323;52.170;7.538;2022-12-11T01:26:06;19.02;;;8.73;;
56419;SDS011;42323;52.170;7.538;2022-12-11T01:28:35;22.15;;;7.63;;
56419;SDS011;42323;52.170;7.538;2022-12-11T01:31:02;20.52;;;8.48;;
56419;SDS011;42323;52.170;7.538;2022-12-11T01:33:33;21.63;;;9.60;;
56419;SDS011;42323;52.170;7.538;2022-12-11T01:36:00;22.98;;;8.90;;
56419;SDS011;42323;52.170;7.538;2022-12-11T01:38:27;20.73;;;8.55;;
56419;SDS011;42323;52.170;7.538;2022-12-11T01:40:53;21.17;;;7.55;;
56419;SDS011;42323;52.170;7.538;2022-12-11T01:43:20;16.38;;;7.85;;
56419;SDS011;42323;52.170;7.538;2022-12-11T01:45:47;22.30;;;7.75;;
56419;SDS011;42323;52.170;7.538;2022-12-11T01:48:24;14.25;;;7.75;;
56419;SDS011;42323;52.170;7.538;2022-12-11T01:50:55;19.35;;;9.07;;
56419;SDS011;42323;52.170;7.538;2022-12-11T01:53:26;19.50;;;8.07;;
56419;SDS011;42323;52.170;7.538;2022-12-11T01:55:57;20.60;;;7.97;;
56419;SDS011;42323;52.170;7.538;2022-12-11T01:58:25;21.30;;;8.32;;
56419;SDS011;42323;52.170;7.538;2022-12-11T02:00:59;19.25;;;7.00;;
56419;SDS011;42323;52.170;7.538;2022-12-11T02:03:28;17.15;;;7.30;;
56419;SDS011;42323;52.170;7.538;2022-12-11T02:05:58;15.20;;;7.93;;
56419;SDS011;42323;52.170;7.538;2022-12-11T02:08:25;23.10;;;8.10;;
56419;SDS011;42323;52.170;7.538;2022-12-11T02:11:15;23.05;;;8.27;;
56419;SDS011;42323;52.170;7.538;2022-12-11T02:16:49;18.25;;;7.53;;
56419;SDS011;42323;52.170;7.538;2022-12-11T02:22:42;26.20;;;10.07;;
56419;SDS011;42323;52.170;7.538;2022-12-11T02:30:41;17.42;;;8.27;;
56419;SDS011;42323;52.170;7.538;2022-12-11T02:33:14;24.77;;;8.70;;
56419;SDS011;42323;52.170;7.538;2022-12-11T02:35:45;22.02;;;9.07;;
56419;SDS011;42323;52.170;7.538;2022-12-11T02:38:15;16.52;;;8.80;;
56419;SDS011;42323;52.170;7.538;2022-12-11T02:40:50;20.25;;;8.45;;
56419;SDS011;42323;52.170;7.538;2022-12-11T02:43:18;18.83;;;8.73;;
56419;SDS011;42323;52.170;7.538;2022-12-11T02:45:47;23.42;;;8.10;;
56419;SDS011;42323;52.170;7.538;2022-12-11T02:48:17;15.77;;;7.60;;
56419;SDS011;42323;52.170;7.538;2022-12-11T02:50:46;21.45;;;8.80;;
56419;SDS011;42323;52.170;7.538;2022-12-11T02:53:17;11.48;;;7.00;;
56419;SDS011;42323;52.170;7.538;2022-12-11T02:55:50;22.75;;;7.00;;
56419;SDS011;42323;52.170;7.538;2022-12-11T02:58:25;20.55;;;8.77;;
56419;SDS011;42323;52.170;7.538;2022-12-11T03:00:56;19.45;;;7.72;;
56419;SDS011;42323;52.170;7.538;2022-12-11T03:03:23;19.80;;;8.05;;
56419;SDS011;42323;52.170;7.538;2022-12-11T03:05:50;21.48;;;8.48;;
56419;SDS011;42323;52.170;7.538;2022-12-11T03:08:16;14.52;;;7.68;;
56419;SDS011;42323;52.170;7.538;2022-12-11T03:10:44;15.50;;;6.88;;
56419;SDS011;42323;52.170;7.538;2022-12-11T03:13:12;22.52;;;7.35;;
56419;SDS011;42323;52.170;7.538;2022-12-11T03:20:56;13.48;;;6.00;;
56419;SDS011;42323;52.170;7.538;2022-12-11T03:23:47;20.60;;;7.47;;
56419;SDS011;42323;52.170;7.538;2022-12-11T03:26:20;16.50;;;7.35;;
56419;SDS011;42323;52.170;7.538;2022-12-11T03:28:59;20.00;;;8.63;;
56419;SDS011;42323;52.170;7.538;2022-12-11T03:31:30;19.65;;;7.45;;
56419;SDS011;42323;52.170;7.538;2022-12-11T03:34:07;19.55;;;7.10;;
56419;SDS011;42323;52.170;7.538;2022-12-11T03:36:43;22.55;;;8.02;;
56419;SDS011;42323;52.170;7.538;2022-12-11T03:39:17;30.08;;;8.80;;
56419;SDS011;42323;52.170;7.538;2022-12-11T03:41:48;18.13;;;6.32;;
56419;SDS011;42323;52.170;7.538;2022-12-11T03:44:17;21.67;;;7.97;;
56419;SDS011;42323;52.170;7.538;2022-12-11T03:46:46;18.88;;;7.60;;
56419;SDS011;42323;52.170;7.538;2022-12-11T03:49:16;15.10;;;6.20;;
56419;SDS011;42323;52.170;7.538;2022-12-11T03:51:51;16.58;;;5.80;;
56419;SDS011;42323;52.170;7.538;2022-12-11T03:54:21;13.63;;;6.88;;
56419;SDS011;42323;52.170;7.538;2022-12-11T03:56:50;19.73;;;6.38;;
56419;SDS011;42323;52.170;7.538;2022-12-11T03:59:20;13.13;;;7.53;;
56419;SDS011;42323;52.170;7.538;2022-12-11T04:01:47;16.02;;;7.93;;
56419;SDS011;42323;52.170;7.538;2022-12-11T04:04:14;17.80;;;7.47;;
56419;SDS011;42323;52.170;7.538;2022-12-11T04:06:40;16.85;;;6.38;;
56419;SDS011;42323;52.170;7.538;2022-12-11T04:09:07;13.18;;;5.75;;
56419;SDS011;42323;52.170;7.538;2022-12-11T04:11:34;14.93;;;6.28;;
56419;SDS011;42323;52.170;7.538;2022-12-11T04:16:47;20.00;;;7.43;;
56419;SDS011;42323;52.170;7.538;2022-12-11T04:19:14;12.98;;;5.90;;
56419;SDS011;42323;52.170;7.538;2022-12-11T04:22:00;16.77;;;6.20;;
56419;SDS011;42323;52.170;7.538;2022-12-11T04:24:48;11.70;;;5.75;;
56419;SDS011;42323;52.170;7.538;2022-12-11T04:27:16;16.23;;;6.30;;
56419;SDS011;42323;52.170;7.538;2022-12-11T04:30:04;13.75;;;5.68;;
56419;SDS011;42323;52.170;7.538;2022-12-11T04:32:34;14.90;;;6.93;;
56419;SDS011;42323;52.170;7.538;2022-12-11T04:35:00;17.73;;;7.13;;
56419;SDS011;42323;52.170;7.538;2022-12-11T04:37:27;17.13;;;6.55;;
56419;SDS011;42323;52.170;7.538;2022-12-11T04:39:54;17.27;;;7.47;;
56419;SDS011;42323;52.170;7.538;2022-12-11T04:42:21;16.30;;;5.95;;
56419;SDS011;42323;52.170;7.538;2022-12-11T04:44:47;16.60;;;7.10;;
56419;SDS011;42323;52.170;7.538;2022-12-11T04:47:14;17.40;;;7.55;;
56419;SDS011;42323;52.170;7.538;2022-12-11T04:49:41;17.33;;;7.18;;
56419;SDS011;42323;52.170;7.538;2022-12-11T04:52:08;16.80;;;6.57;;
56419;SDS011;42323;52.170;7.538;2022-12-11T04:54:35;21.42;;;7.65;;
56419;SDS011;42323;52.170;7.538;2022-12-11T04:57:02;17.42;;;6.97;;
56419;SDS011;42323;52.170;7.538;2022-12-11T04:59:30;18.67;;;6.68;;
56419;SDS011;42323;52.170;7.538;2022-12-11T05:01:58;17.52;;;6.32;;
56419;SDS011;42323;52.170;7.538;2022-12-11T05:04:25;14.88;;;6.88;;
56419;SDS011;42323;52.170;7.538;2022-12-11T05:06:57;19.83;;;6.30;;
56419;SDS011;42323;52.170;7.538;2022-12-11T05:09:24;12.05;;;6.28;;
56419;SDS011;42323;52.170;7.538;2022-12-11T05:11:52;13.98;;;7.22;;
56419;SDS011;42323;52.170;7.538;2022-12-11T05:14:20;17.38;;;7.70;;
56419;SDS011;42323;52.170;7.538;2022-12-11T05:16:47;17.60;;;7.82;;
56419;SDS011;42323;52.170;7.538;2022-12-11T05:19:14;20.40;;;7.72;;
56419;SDS011;42323;52.170;7.538;2022-12-11T05:21:41;23.45;;;7.35;;
56419;SDS011;42323;52.170;7.538;2022-12-11T05:24:08;19.13;;;7.90;;
56419;SDS011;42323;52.170;7.538;2022-12-11T05:26:35;15.45;;;7.10;;
56419;SDS011;42323;52.170;7.538;2022-12-11T05:29:02;21.45;;;7.47;;
56419;SDS011;42323;52.170;7.538;2022-12-11T05:31:29;18.75;;;7.82;;
56419;SDS011;42323;52.170;7.538;2022-12-11T05:33:55;17.73;;;7.50;;
56419;SDS011;42323;52.170;7.538;2022-12-11T05:36:23;18.17;;;7.95;;
56419;SDS011;42323;52.170;7.538;2022-12-11T05:38:52;22.30;;;7.05;;
56419;SDS011;42323;52.170;7.538;2022-12-11T05:41:22;18.30;;;7.95;;
56419;SDS011;42323;52.170;7.538;2022-12-11T05:43:50;14.25;;;6.85;;
56419;SDS011;42323;52.170;7.538;2022-12-11T05:46:18;14.88;;;6.78;;
56419;SDS011;42323;52.170;7.538;2022-12-11T05:48:48;18.60;;;7.30;;
56419;SDS011;42323;52.170;7.538;2022-12-11T05:51:17;17.80;;;6.55;;
56419;SDS011;42323;52.170;7.538;2022-12-11T05:53:44;16.35;;;6.72;;
56419;SDS011;42323;52.170;7.538;2022-12-11T05:56:13;22.20;;;7.10;;
56419;SDS011;42323;52.170;7.538;2022-12-11T05:58:42;16.40;;;6.93;;
56419;SDS011;42323;52.170;7.538;2022-12-11T06:01:11;18.25;;;7.40;;
56419;SDS011;42323;52.170;7.538;2022-12-11T06:03:39;14.75;;;6.80;;
56419;SDS011;42323;52.170;7.538;2022-12-11T06:06:07;20.15;;;7.50;;
56419;SDS011;42323;52.170;7.538;2022-12-11T06:08:34;22.02;;;6.70;;
56419;SDS011;42323;52.170;7.538;2022-12-11T06:11:01;20.08;;;8.13;;
56419;SDS011;42323;52.170;7.538;2022-12-11T06:13:28;13.45;;;7.10;;
56419;SDS011;42323;52.170;7.538;2022-12-11T06:15:59;20.67;;;8.35;;
56419;SDS011;42323;52.170;7.538;2022-12-11T06:18:29;19.08;;;7.78;;
56419;SDS011;42323;52.170;7.538;2022-12-11T06:20:56;13.15;;;6.43;;
56419;SDS011;42323;52.170;7.538;2022-12-11T06:23:23;17.83;;;6.80;;
56419;SDS011;42323;52.170;7.538;2022-12-11T06:28:26;17.88;;;6.38;;
56419;SDS011;42323;52.170;7.538;2022-12-11T06:30:53;12.80;;;6.55;;
56419;SDS011;42323;52.170;7.538;2022-12-11T06:35:54;26.25;;;7.90;;
56419;SDS011;42323;52.170;7.538;2022-12-11T06:38:22;15.35;;;6.53;;
56419;SDS011;42323;52.170;7.538;2022-12-11T06:40:56;17.90;;;6.13;;
56419;SDS011;42323;52.170;7.538;2022-12-11T06:43:24;20.10;;;6.63;;
56419;SDS011;42323;52.170;7.538;2022-12-11T06:45:51;15.30;;;5.82;;
56419;SDS011;42323;52.170;7.538;2022-12-11T06:48:18;18.95;;;7.43;;
56419;SDS011;42323;52.170;7.538;2022-12-11T06:50:45;14.73;;;6.82;;
56419;SDS011;42323;52.170;7.538;2022-12-11T06:53:13;16.50;;;7.13;;
56419;SDS011;42323;52.170;7.538;2022-12-11T06:55:40;15.60;;;6.05;;
56419;SDS011;42323;52.170;7.538;2022-12-11T06:58:08;14.27;;;6.13;;
56419;SDS011;42323;52.170;7.538;2022-12-11T07:00:36;14.38;;;6.68;;
56419;SDS011;42323;52.170;7.538;2022-12-11T07:03:04;16.42;;;7.78;;
56419;SDS011;42323;52.170;7.538;2022-12-11T07:05:32;16.25;;;7.45;;
56419;SDS011;42323;52.170;7.538;2022-12-11T07:07:59;13.85;;;5.57;;
56419;SDS011;42323;52.170;7.538;2022-12-11T07:10:26;14.75;;;5.70;;
56419;SDS011;42323;52.170;7.538;2022-12-11T07:12:53;13.80;;;5.85;;
56419;SDS011;42323;52.170;7.538;2022-12-11T07:15:20;17.13;;;6.38;;
56419;SDS011;42323;52.170;7.538;2022-12-11T07:17:46;19.67;;;6.82;;
56419;SDS011;42323;52.170;7.538;2022-12-11T07:20:13;14.52;;;6.97;;
56419;SDS011;42323;52.170;7.538;2022-12-11T07:22:40;14.88;;;7.00;;
56419;SDS011;42323;52.170;7.538;2022-12-11T07:25:12;16.75;;;6.20;;
56419;SDS011;42323;52.170;7.538;2022-12-11T07:27:39;17.58;;;8.05;;
56419;SDS011;42323;52.170;7.538;2022-12-11T07:30:07;13.13;;;5.55;;
56419;SDS011;42323;52.170;7.538;2022-12-11T07:32:34;11.88;;;5.78;;
56419;SDS011;42323;52.170;7.538;2022-12-11T07:35:02;12.15;;;6.07;;
56419;SDS011;42323;52.170;7.538;2022-12-11T07:37:29;16.95;;;6.30;;
56419;SDS011;42323;52.170;7.538;2022-12-11T07:39:56;12.63;;;5.80;;
56419;SDS011;42323;52.170;7.538;2022-12-11T07:42:22;11.57;;;4.88;;
56419;SDS011;42323;52.170;7.538;2022-12-11T07:44:49;16.95;;;6.18;;
56419;SDS011;42323;52.170;7.538;2022-12-11T07:47:16;11.55;;;4.97;;
56419;SDS011;42323;52.170;7.538;2022-12-11T07:49:42;14.73;;;5.78;;
56419;SDS011;42323;52.170;7.538;2022-12-11T07:52:09;10.50;;;4.40;;
56419;SDS011;42323;52.170;7.538;2022-12-11T07:54:36;11.68;;;5.22;;
56419;SDS011;42323;52.170;7.538;2022-12-11T07:57:03;15.20;;;6.15;;
56419;SDS011;42323;52.170;7.538;2022-12-11T07:59:33;13.68;;;6.03;;
56419;SDS011;42323;52.170;7.538;2022-12-11T08:01:59;14.38;;;6.20;;
56419;SDS011;42323;52.170;7.538;2022-12-11T08:07:01;14.43;;;5.50;;
56419;SDS011;42323;52.170;7.538;2022-12-11T08:09:28;13.60;;;5.63;;
56419;SDS011;42323;52.170;7.538;2022-12-11T08:11:55;15.77;;;5.35;;
56419;SDS011;42323;52.170;7.538;2022-12-11T08:14:22;11.00;;;5.97;;
56419;SDS011;42323;52.170;7.538;2022-12-11T08:16:48;13.75;;;5.55;;
56419;SDS011;42323;52.170;7.538;2022-12-11T08:19:15;13.88;;;5.68;;
56419;SDS011;42323;52.170;7.538;2022-12-11T08:21:43;19.88;;;7.05;;
56419;SDS011;42323;52.170;7.538;2022-12-11T08:24:10;11.38;;;5.70;;
56419;SDS011;42323;52.170;7.538;2022-12-11T08:26:37;15.35;;;7.57;;
56419;SDS011;42323;52.170;7.538;2022-12-11T08:29:03;16.73;;;7.47;;
56419;SDS011;42323;52.170;7.538;2022-12-11T08:31:30;19.73;;;7.60;;
56419;SDS011;42323;52.170;7.538;2022-12-11T08:33:58;17.65;;;7.15;;
56419;SDS011;42323;52.170;7.538;2022-12-11T08:36:25;19.25;;;7.57;;
56419;SDS011;42323;52.170;7.538;2022-12-11T08:38:52;21.17;;;8.05;;
56419;SDS011;42323;52.170;7.538;2022-12-11T08:41:24;18.92;;;7.70;;
56419;SDS011;42323;52.170;7.538;2022-12-11T08:43:53;17.63;;;7.88;;
56419;SDS011;42323;52.170;7.538;2022-12-11T08:46:26;16.42;;;6.72;;
56419;SDS011;42323;52.170;7.538;2022-12-11T08:48:58;14.45;;;6.15;;
56419;SDS011;42323;52.170;7.538;2022-12-11T09:07:23;19.20;;;6.78;;
56419;SDS011;42323;52.170;7.538;2022-12-11T09:09:52;16.27;;;5.40;;
56419;SDS011;42323;52.170;7.538;2022-12-11T09:12:19;19.98;;;6.88;;
56419;SDS011;42323;52.170;7.538;2022-12-11T09:14:47;15.98;;;6.32;;
56419;SDS011;42323;52.170;7.538;2022-12-11T09:17:13;16.65;;;5.82;;
56419;SDS011;42323;52.170;7.538;2022-12-11T09:19:40;16.75;;;7.70;;
56419;SDS011;42323;52.170;7.538;2022-12-11T09:22:07;15.20;;;7.45;;
56419;SDS011;42323;52.170;7.538;2022-12-11T09:24:36;18.25;;;6.88;;
56419;SDS011;42323;52.170;7.538;2022-12-11T09:45:50;17.77;;;6.85;;
56419;SDS011;42323;52.170;7.538;2022-12-11T09:48:21;18.75;;;7.57;;
56419;SDS011;42323;52.170;7.538;2022-12-11T09:50:50;16.70;;;6.85;;
56419;SDS011;42323;52.170;7.538;2022-12-11T09:53:31;16.55;;;6.85;;
56419;SDS011;42323;52.170;7.538;2022-12-11T10:01:17;17.77;;;7.22;;
56419;SDS011;42323;52.170;7.538;2022-12-11T10:06:37;16.13;;;7.40;;
56419;SDS011;42323;52.170;7.538;2022-12-11T10:09:18;15.27;;;7.03;;
56419;SDS011;42323;52.170;7.538;2022-12-11T10:14:28;15.80;;;8.18;;
56419;SDS011;42323;52.170;7.538;2022-12-11T10:17:15;17.95;;;8.43;;
56419;SDS011;42323;52.170;7.538;2022-12-11T10:19:45;17.30;;;7.20;;
56419;SDS011;42323;52.170;7.538;2022-12-11T10:22:20;20.67;;;8.95;;
56419;SDS011;42323;52.170;7.538;2022-12-11T10:27:39;18.90;;;7.30;;
56419;SDS011;42323;52.170;7.538;2022-12-11T10:35:14;23.30;;;9.52;;
56419;SDS011;42323;52.170;7.538;2022-12-11T10:40:46;19.67;;;7.78;;
56419;SDS011;42323;52.170;7.538;2022-12-11T10:43:15;16.00;;;7.43;;
56419;SDS011;42323;52.170;7.538;2022-12-11T10:45:49;18.90;;;6.93;;
56419;SDS011;42323;52.170;7.538;2022-12-11T10:48:19;19.13;;;7.90;;
56419;SDS011;42323;52.170;7.538;2022-12-11T10:51:00;22.45;;;9.23;;
56419;SDS011;42323;52.170;7.538;2022-12-11T10:53:30;17.30;;;7.32;;
56419;SDS011;42323;52.170;7.538;2022-12-11T10:58:36;15.63;;;7.60;;
56419;SDS011;42323;52.170;7.538;2022-12-11T11:01:08;17.38;;;7.63;;
56419;SDS011;42323;52.170;7.538;2022-12-11T11:06:31;20.23;;;7.25;;
56419;SDS011;42323;52.170;7.538;2022-12-11T11:08:59;14.50;;;7.25;;
56419;SDS011;42323;52.170;7.538;2022-12-11T11:14:04;17.40;;;6.88;;
56419;SDS011;42323;52.170;7.538;2022-12-11T11:16:34;19.75;;;8.80;;
56419;SDS011;42323;52.170;7.538;2022-12-11T11:19:03;22.73;;;8.63;;
56419;SDS011;42323;52.170;7.538;2022-12-11T11:21:31;19.20;;;8.32;;
56419;SDS011;42323;52.170;7.538;2022-12-11T11:23:59;19.67;;;8.38;;
56419;SDS011;42323;52.170;7.538;2022-12-11T11:26:26;13.52;;;6.68;;
56419;SDS011;42323;52.170;7.538;2022-12-11T11:29:21;21.35;;;7.88;;
56419;SDS011;42323;52.170;7.538;2022-12-11T11:31:53;20.65;;;7.75;;
56419;SDS011;42323;52.170;7.538;2022-12-11T11:34:20;17.60;;;7.80;;
56419;SDS011;42323;52.170;7.538;2022-12-11T11:50:55;21.20;;;8.07;;
56419;SDS011;42323;52.170;7.538;2022-12-11T12:01:27;18.48;;;8.38;;
56419;SDS011;42323;52.170;7.538;2022-12-11T12:04:03;28.67;;;9.25;;
56419;SDS011;42323;52.170;7.538;2022-12-11T12:47:11;20.52;;;8.40;;
56419;SDS011;42323;52.170;7.538;2022-12-11T12:49:43;22.50;;;8.48;;
56419;SDS011;42323;52.170;7.538;2022-12-11T12:52:14;16.15;;;8.35;;
56419;SDS011;42323;52.170;7.538;2022-12-11T12:54:45;23.70;;;8.32;;
56419;SDS011;42323;52.170;7.538;2022-12-11T12:57:35;18.05;;;8.77;;
56419;SDS011;42323;52.170;7.538;2022-12-11T13:00:05;22.75;;;9.40;;
56419;SDS011;42323;52.170;7.538;2022-12-11T13:02:48;20.08;;;8.70;;
56419;SDS011;42323;52.170;7.538;2022-12-11T13:05:23;21.85;;;7.68;;
56419;SDS011;42323;52.170;7.538;2022-12-11T13:07:52;14.70;;;7.65;;
56419;SDS011;42323;52.170;7.538;2022-12-11T13:10:26;18.23;;;7.30;;
56419;SDS011;42323;52.170;7.538;2022-12-11T13:12:59;25.05;;;8.63;;
56419;SDS011;42323;52.170;7.538;2022-12-11T13:15:37;18.10;;;8.55;;
56419;SDS011;42323;52.170;7.538;2022-12-11T13:18:32;18.00;;;8.52;;
56419;SDS011;42323;52.170;7.538;2022-12-11T13:21:01;22.23;;;9.25;;
56419;SDS011;42323;52.170;7.538;2022-12-11T13:23:49;22.27;;;9.98;;
56419;SDS011;42323;52.170;7.538;2022-12-11T13:26:30;19.30;;;8.90;;
56419;SDS011;42323;52.170;7.538;2022-12-11T13:28:58;20.13;;;9.02;;
56419;SDS011;42323;52.170;7.538;2022-12-11T13:31:32;21.45;;;9.82;;
56419;SDS011;42323;52.170;7.538;2022-12-11T13:34:05;26.85;;;10.82;;
56419;SDS011;42323;52.170;7.538;2022-12-11T13:36:39;24.92;;;10.18;;
56419;SDS011;42323;52.170;7.538;2022-12-11T13:39:30;23.70;;;10.07;;
56419;SDS011;42323;52.170;7.538;2022-12-11T13:42:01;20.35;;;10.40;;
56419;SDS011;42323;52.170;7.538;2022-12-11T13:44:39;24.42;;;9.63;;
56419;SDS011;42323;52.170;7.538;2022-12-11T13:47:10;25.55;;;9.70;;
56419;SDS011;42323;52.170;7.538;2022-12-11T13:49:42;18.08;;;8.23;;
56419;SDS011;42323;52.170;7.538;2022-12-11T13:52:17;14.93;;;7.60;;
56419;SDS011;42323;52.170;7.538;2022-12-11T13:54:49;21.80;;;8.27;;
56419;SDS011;42323;52.170;7.538;2022-12-11T13:57:20;15.25;;;7.60;;
56419;SDS011;42323;52.170;7.538;2022-12-11T13:59:52;24.85;;;8.68;;
56419;SDS011;42323;52.170;7.538;2022-12-11T14:04:51;17.77;;;8.43;;
56419;SDS011;42323;52.170;7.538;2022-12-11T14:07:42;19.33;;;9.68;;
56419;SDS011;42323;52.170;7.538;2022-12-11T14:10:20;20.65;;;9.10;;
56419;SDS011;42323;52.170;7.538;2022-12-11T14:12:52;23.48;;;9.05;;
56419;SDS011;42323;52.170;7.538;2022-12-11T14:15:32;17.67;;;10.00;;
56419;SDS011;42323;52.170;7.538;2022-12-11T14:18:02;26.15;;;10.05;;
56419;SDS011;42323;52.170;7.538;2022-12-11T14:20:31;24.55;;;10.10;;
56419;SDS011;42323;52.170;7.538;2022-12-11T14:25:52;20.95;;;9.45;;
56419;SDS011;42323;52.170;7.538;2022-12-11T14:28:22;19.60;;;8.75;;
56419;SDS011;42323;52.170;7.538;2022-12-11T14:30:56;24.08;;;9.63;;
56419;SDS011;42323;52.170;7.538;2022-12-11T14:33:26;31.20;;;9.60;;
56419;SDS011;42323;52.170;7.538;2022-12-11T14:35:57;26.25;;;9.82;;
56419;SDS011;42323;52.170;7.538;2022-12-11T14:38:26;18.50;;;9.98;;
56419;SDS011;42323;52.170;7.538;2022-12-11T14:40:57;18.52;;;9.82;;
56419;SDS011;42323;52.170;7.538;2022-12-11T14:43:30;25.00;;;10.88;;
56419;SDS011;42323;52.170;7.538;2022-12-11T14:46:05;16.83;;;9.88;;
56419;SDS011;42323;52.170;7.538;2022-12-11T14:51:09;18.30;;;7.93;;
56419;SDS011;42323;52.170;7.538;2022-12-11T14:53:43;21.73;;;9.25;;
56419;SDS011;42323;52.170;7.538;2022-12-11T14:56:20;19.75;;;8.75;;
56419;SDS011;42323;52.170;7.538;2022-12-11T15:01:24;20.50;;;8.13;;
56419;SDS011;42323;52.170;7.538;2022-12-11T15:06:45;16.15;;;7.85;;
56419;SDS011;42323;52.170;7.538;2022-12-11T15:14:30;20.08;;;8.07;;
56419;SDS011;42323;52.170;7.538;2022-12-11T15:16:58;21.75;;;7.70;;
56419;SDS011;42323;52.170;7.538;2022-12-11T15:24:40;26.05;;;11.27;;
56419;SDS011;42323;52.170;7.538;2022-12-11T15:29:47;24.90;;;10.50;;
56419;SDS011;42323;52.170;7.538;2022-12-11T15:32:17;16.45;;;8.95;;
56419;SDS011;42323;52.170;7.538;2022-12-11T15:39:46;28.17;;;10.75;;
56419;SDS011;42323;52.170;7.538;2022-12-11T15:42:14;25.80;;;12.27;;
56419;SDS011;42323;52.170;7.538;2022-12-11T15:44:46;24.67;;;12.63;;
56419;SDS011;42323;52.170;7.538;2022-12-11T15:47:13;26.88;;;10.88;;
56419;SDS011;42323;52.170;7.538;2022-12-11T15:49:41;22.13;;;9.77;;
56419;SDS011;42323;52.170;7.538;2022-12-11T15:52:10;27.73;;;11.23;;
56419;SDS011;42323;52.170;7.538;2022-12-11T15:54:37;17.73;;;8.02;;
56419;SDS011;42323;52.170;7.538;2022-12-11T15:57:05;18.42;;;8.07;;
56419;SDS011;42323;52.170;7.538;2022-12-11T15:59:38;16.98;;;9.00;;
56419;SDS011;42323;52.170;7.538;2022-12-11T16:02:09;22.17;;;11.15;;
56419;SDS011;42323;52.170;7.538;2022-12-11T16:04:38;22.38;;;9.65;;
56419;SDS011;42323;52.170;7.538;2022-12-11T16:07:18;22.48;;;9.15;;
56419;SDS011;42323;52.170;7.538;2022-12-11T16:09:51;25.30;;;9.50;;
56419;SDS011;42323;52.170;7.538;2022-12-11T16:12:18;21.08;;;9.40;;
56419;SDS011;42323;52.170;7.538;2022-12-11T16:14:45;21.20;;;9.80;;
56419;SDS011;42323;52.170;7.538;2022-12-11T16:17:13;21.70;;;10.02;;
56419;SDS011;42323;52.170;7.538;2022-12-11T16:19:41;19.33;;;9.52;;
56419;SDS011;42323;52.170;7.538;2022-12-11T16:22:14;23.20;;;10.30;;
56419;SDS011;42323;52.170;7.538;2022-12-11T16:24:41;16.35;;;8.70;;
56419;SDS011;42323;52.170;7.538;2022-12-11T16:35:06;22.52;;;9.70;;
56419;SDS011;42323;52.170;7.538;2022-12-11T17:28:55;21.38;;;10.13;;
56419;SDS011;42323;52.170;7.538;2022-12-11T17:31:22;29.60;;;10.80;;
56419;SDS011;42323;52.170;7.538;2022-12-11T17:33:50;23.60;;;11.27;;
56419;SDS011;42323;52.170;7.538;2022-12-11T17:36:18;22.35;;;9.73;;
56419;SDS011;42323;52.170;7.538;2022-12-11T17:38:46;18.02;;;8.98;;
56419;SDS011;42323;52.170;7.538;2022-12-11T17:41:15;18.48;;;9.43;;
56419;SDS011;42323;52.170;7.538;2022-12-11T17:43:49;19.40;;;8.57;;
56419;SDS011;42323;52.170;7.538;2022-12-11T17:46:19;15.35;;;9.10;;
56419;SDS011;42323;52.170;7.538;2022-12-11T17:48:47;22.05;;;10.90;;
56419;SDS011;42323;52.170;7.538;2022-12-11T17:51:15;24.90;;;11.38;;
56419;SDS011;42323;52.170;7.538;2022-12-11T17:53:49;25.85;;;10.85;;
56419;SDS011;42323;52.170;7.538;2022-12-11T17:56:16;28.33;;;10.85;;
56419;SDS011;42323;52.170;7.538;2022-12-11T17:58:45;24.20;;;10.25;;
56419;SDS011;42323;52.170;7.538;2022-12-11T18:01:11;24.10;;;10.05;;
56419;SDS011;42323;52.170;7.538;2022-12-11T18:03:38;27.45;;;11.68;;
56419;SDS011;42323;52.170;7.538;2022-12-11T18:06:07;23.67;;;11.05;;
56419;SDS011;42323;52.170;7.538;2022-12-11T18:08:36;26.73;;;11.55;;
56419;SDS011;42323;52.170;7.538;2022-12-11T18:11:05;21.80;;;11.27;;
56419;SDS011;42323;52.170;7.538;2022-12-11T18:13:32;24.95;;;12.00;;
56419;SDS011;42323;52.170;7.538;2022-12-11T18:16:00;24.63;;;11.13;;
56419;SDS011;42323;52.170;7.538;2022-12-11T18:18:29;25.50;;;11.43;;
56419;SDS011;42323;52.170;7.538;2022-12-11T18:20:56;21.45;;;10.18;;
56419;SDS011;42323;52.170;7.538;2022-12-11T18:23:23;23.60;;;9.55;;
56419;SDS011;42323;52.170;7.538;2022-12-11T18:25:50;24.95;;;10.50;;
56419;SDS011;42323;52.170;7.538;2022-12-11T18:28:17;21.05;;;10.38;;
56419;SDS011;42323;52.170;7.538;2022-12-11T18:30:44;19.90;;;8.55;;
56419;SDS011;42323;52.170;7.538;2022-12-11T18:33:11;27.05;;;10.77;;
56419;SDS011;42323;52.170;7.538;2022-12-11T18:35:39;24.67;;;11.73;;
56419;SDS011;42323;52.170;7.538;2022-12-11T18:38:06;26.23;;;11.48;;
56419;SDS011;42323;52.170;7.538;2022-12-11T18:40:32;26.48;;;11.85;;
56419;SDS011;42323;52.170;7.538;2022-12-11T18:42:59;35.25;;;14.00;;
56419;SDS011;42323;52.170;7.538;2022-12-11T18:45:26;27.77;;;12.27;;
56419;SDS011;42323;52.170;7.538;2022-12-11T18:47:53;28.08;;;11.35;;
56419;SDS011;42323;52.170;7.538;2022-12-11T18:50:22;19.42;;;9.57;;